LiveATC.Net - Listen to live air traffic control over the Internet!


ICAO: SKBO  IATA: BOG   Airport: El Nuevo Dorado International Airport
City: Bogota
Country: Colombia   Continent: South America
SKBO METAR Weather: SKBO 250600Z 36003KT 9999 SCT020 SCT080 12/12 Q1029 NOSIG RMKA3038
SKBO Flight Activity (FlightAware)

SKBO Del/Gnd/Twr/App
Feed Status: DOWN
Last heard on: 2020-09-01 16:38:05 (326 days 13 hours 59 minutes ago)
Archive Access: SKBO Del/Gnd/Twr/App
FacilityFrequency
Bogota Approach119.500
Bogota Clearance Delivery121.600
Bogota Departure (North)121.300
Bogota Departure (South)119.650
Bogota Ground (North)121.800
Bogota Ground (South)122.750
Bogota Information126.900
Bogota Tower (North)118.100
Bogota Tower (South)118.250
Guaymaral Ground121.700
Guaymaral Tower118.800

NOTICE

Unauthorized use prohibited. See LiveATC.net Terms of Service


Airport/ARTCC Code
Frequency Search
(e.g., 124.400, 128.75)
Site-wide search
 


Browse Feeds
Top 50 Feeds
HF Oceanic Feeds
Coverage Map
Bad Weather Areas

LiveATC FAQ
Offer LiveATC feed
Contact LiveATC.net
Press Inquiries

LiveATC on iPhone
LiveATC on Android

Windows Phone
Windows 8/10

LiveATC Mobile
(Mobile browser)

ATC Audio Archives
Interesting Recordings

LiveATC Forums


Home Page
About LiveATC.net
Make a Donation
Terms of Use
Privacy Policy

Canadian Air Freqs

AIRMETs/SIGMETs

FAA Airport Status
NAS Status
Arrival Demand


Server Software By:
Icecast.org
Liquidsoap